Time;durP1;ratioP1;P1;durP2;ratioP2;P2;SDS_P1;SDS_P2;PMS_P1;PMS_P2;Temp;Humidity;BMP_temperature;BMP_pressure;BME280_temperature;BME280_humidity;BME280_pressure;Samples;Min_cycle;Max_cycle;Signal;HPM_P1;HPM_P2
2023/09/02 00:00:13;;;;;;;68.90;44.93;;;;;;;29.64;47.64;100155.16;1772468;80;21341;-80
2023/09/02 00:03:18;;;;;;;66.70;45.55;;;;;;;29.57;47.87;100153.86;1791342;79;21858;-81
2023/09/02 00:06:24;;;;;;;60.33;41.77;;;;;;;29.76;47.56;100152.67;1784368;79;21401;-80
2023/09/02 00:09:30;;;;;;;59.10;41.85;;;;;;;29.68;47.78;100155.35;1779992;79;21868;-80
2023/09/02 00:12:36;;;;;;;60.33;41.13;;;;;;;29.83;47.42;100158.48;1775264;79;21314;-79
2023/09/02 00:15:42;;;;;;;53.28;36.38;;;;;;;29.60;47.86;100165.36;1773376;79;21329;-79
2023/09/02 00:18:48;;;;;;;49.93;36.53;;;;;;;29.54;47.95;100166.53;1781076;79;21310;-79
2023/09/02 00:21:53;;;;;;;51.92;34.48;;;;;;;29.24;48.64;100164.45;1788539;79;21876;-79
2023/09/02 00:24:59;;;;;;;49.10;34.60;;;;;;;29.16;48.76;100169.36;1787171;79;21355;-79
2023/09/02 00:28:05;;;;;;;47.78;35.60;;;;;;;29.29;48.29;100167.77;1782150;79;21322;-79
2023/09/02 00:31:11;;;;;;;41.40;31.15;;;;;;;29.14;48.34;100171.66;1784227;79;21333;-78
2023/09/02 00:34:17;;;;;;;46.63;31.82;;;;;;;29.23;48.35;100169.83;1793337;79;21332;-79
2023/09/02 00:37:22;;;;;;;38.55;27.27;;;;;;;29.12;48.00;100167.45;1778662;79;22612;-79
2023/09/02 00:40:28;;;;;;;37.33;23.47;;;;;;;28.93;48.87;100171.05;1775779;79;21325;-80
2023/09/02 00:43:35;;;;;;;30.32;22.62;;;;;;;28.92;48.78;100158.11;1787266;79;21333;-79
2023/09/02 00:46:40;;;;;;;36.15;22.10;;;;;;;29.24;48.08;100162.22;1793818;79;21332;-80
2023/09/02 00:49:46;;;;;;;33.55;22.62;;;;;;;28.99;48.48;100171.30;1793007;79;21332;-80
2023/09/02 00:52:53;;;;;;;28.42;19.95;;;;;;;28.93;48.46;100170.20;1784271;79;21353;-80
2023/09/02 00:55:59;;;;;;;30.72;22.05;;;;;;;29.07;48.15;100173.16;1789875;79;21375;-79
2023/09/02 00:59:07;;;;;;;30.90;22.45;;;;;;;28.91;48.32;100166.30;1786410;80;21321;-80
2023/09/02 01:02:14;;;;;;;30.45;20.65;;;;;;;28.67;49.04;100164.92;1793064;79;21340;-78
2023/09/02 01:05:19;;;;;;;24.05;19.57;;;;;;;29.00;48.18;100162.28;1773791;79;21350;-78
2023/09/02 01:08:25;;;;;;;28.23;18.82;;;;;;;29.09;47.94;100164.69;1794187;79;21319;-79
2023/09/02 01:11:31;;;;;;;29.87;19.60;;;;;;;28.84;48.32;100167.80;1792048;79;21887;-78
2023/09/02 01:14:37;;;;;;;32.90;19.95;;;;;;;28.90;48.16;100166.61;1803281;79;22209;-79
2023/09/02 01:17:42;;;;;;;26.17;20.52;;;;;;;28.89;48.48;100164.91;1784362;79;21374;-79
2023/09/02 01:21:22;;;;;;;31.93;22.65;;;;;;;29.21;47.51;100163.65;1794717;79;21342;-79
2023/09/02 01:24:54;;;;;;;32.58;24.52;;;;;;;28.90;48.24;100163.22;1798279;79;21907;-78
2023/09/02 01:28:06;;;;;;;34.00;22.52;;;;;;;28.97;47.88;100174.12;1800303;79;21317;-79
2023/09/02 01:31:12;;;;;;;37.85;24.60;;;;;;;28.88;47.97;100173.09;1794096;79;21274;-79
2023/09/02 01:34:17;;;;;;;32.03;23.80;;;;;;;28.96;47.67;100178.09;1794477;79;21336;-79
2023/09/02 01:37:23;;;;;;;32.38;23.83;;;;;;;29.11;47.28;100180.69;1791541;79;21356;-79
2023/09/02 01:40:28;;;;;;;36.45;25.75;;;;;;;29.14;47.22;100184.32;1777470;79;21326;-79
2023/09/02 01:43:34;;;;;;;41.35;26.42;;;;;;;28.90;47.64;100194.76;1787912;79;21325;-79
2023/09/02 01:46:40;;;;;;;31.30;22.87;;;;;;;29.09;47.18;100197.06;1798712;79;21333;-79
2023/09/02 01:49:47;;;;;;;33.67;24.63;;;;;;;29.09;47.15;100195.66;1780383;79;21340;-79
2023/09/02 01:52:54;;;;;;;34.13;23.87;;;;;;;29.21;46.84;100199.42;1779993;79;21314;-79
2023/09/02 01:55:59;;;;;;;33.35;24.60;;;;;;;28.96;47.10;100200.04;1767248;79;21322;-79
2023/09/02 01:59:05;;;;;;;33.13;24.52;;;;;;;28.89;47.24;100201.50;1791808;79;21364;-79
2023/09/02 02:02:14;;;;;;;44.03;28.57;;;;;;;28.88;47.24;100198.43;1779808;79;21951;-78
2023/09/02 02:05:21;;;;;;;41.18;29.45;;;;;;;28.91;47.17;100206.28;1792981;79;21312;-79
2023/09/02 02:08:35;;;;;;;45.33;30.52;;;;;;;28.86;47.15;100204.37;1786722;79;21326;-78
2023/09/02 02:11:44;;;;;;;46.70;30.48;;;;;;;28.90;47.05;100206.02;1776000;79;21294;-78
2023/09/02 02:14:49;;;;;;;45.20;31.37;;;;;;;29.07;46.73;100209.76;1797456;79;21635;-78
2023/09/02 02:17:55;;;;;;;39.92;28.67;;;;;;;29.04;46.68;100214.03;1794522;79;22031;-78
2023/09/02 02:21:12;;;;;;;62.95;35.58;;;;;;;29.06;46.63;100210.33;1798586;79;21349;-79
2023/09/02 02:24:17;;;;;;;46.23;31.57;;;;;;;28.96;46.94;100214.69;1786103;79;21319;-78
2023/09/02 02:27:22;;;;;;;56.92;33.95;;;;;;;28.93;47.03;100220.88;1785203;79;21331;-79
2023/09/02 02:30:27;;;;;;;47.88;32.05;;;;;;;28.68;47.68;100221.46;1795577;79;21691;-79
2023/09/02 02:33:32;;;;;;;48.87;32.50;;;;;;;29.01;46.95;100225.88;1777346;79;21876;-80
2023/09/02 02:36:38;;;;;;;46.40;31.50;;;;;;;28.98;46.90;100222.25;1782549;80;21330;-80
2023/09/02 02:39:43;;;;;;;49.23;33.15;;;;;;;28.98;46.87;100223.66;1780603;79;21365;-80
2023/09/02 02:42:48;;;;;;;49.48;32.53;;;;;;;28.94;46.98;100229.05;1777767;79;21326;-79
2023/09/02 02:45:54;;;;;;;49.70;31.52;;;;;;;29.16;46.41;100228.49;1798654;79;21348;-79
2023/09/02 02:49:01;;;;;;;51.40;31.23;;;;;;;29.22;46.43;100232.94;1793547;79;21321;-80
2023/09/02 02:52:07;;;;;;;45.23;30.52;;;;;;;28.89;47.12;100235.28;1785535;79;21344;-80
2023/09/02 02:55:13;;;;;;;56.20;32.80;;;;;;;28.42;48.15;100238.33;1789832;80;21325;-79
2023/09/02 02:58:19;;;;;;;49.15;30.60;;;;;;;28.97;46.93;100233.25;1773890;79;21333;-79
2023/09/02 03:01:25;;;;;;;50.95;32.33;;;;;;;28.77;47.42;100237.13;1782211;79;21325;-80
2023/09/02 03:04:32;;;;;;;45.08;31.17;;;;;;;29.00;46.95;100240.53;1799389;79;21322;-80
2023/09/02 03:07:37;;;;;;;45.48;28.70;;;;;;;28.39;47.98;100237.55;1789105;79;21390;-79
2023/09/02 03:10:44;;;;;;;43.08;30.08;;;;;;;28.74;47.56;100240.52;1803099;79;21318;-79
2023/09/02 03:13:50;;;;;;;49.35;32.08;;;;;;;29.03;46.71;100241.92;1787907;79;21302;-80
2023/09/02 03:16:56;;;;;;;46.08;30.97;;;;;;;28.89;46.75;100243.19;1796992;79;21391;-79
2023/09/02 03:20:03;;;;;;;40.88;28.42;;;;;;;28.28;48.13;100245.22;1779341;79;21350;-80
2023/09/02 03:23:08;;;;;;;50.40;29.20;;;;;;;27.68;49.35;100243.97;1792604;79;21325;-80
2023/09/02 03:26:24;;;;;;;44.98;30.20;;;;;;;28.08;48.79;100253.24;1795910;79;21337;-80
2023/09/02 03:29:28;;;;;;;37.83;27.25;;;;;;;28.07;48.80;100250.73;1793974;80;21907;-79
2023/09/02 03:32:34;;;;;;;41.68;26.57;;;;;;;27.90;49.30;100264.66;1791558;80;21365;-78
2023/09/02 03:35:46;;;;;;;41.13;25.40;;;;;;;27.92;49.37;100251.13;1782805;79;21321;-80
2023/09/02 03:38:51;;;;;;;39.50;26.65;;;;;;;28.33;48.53;100259.23;1788351;79;21321;-79
2023/09/02 03:41:57;;;;;;;43.70;25.55;;;;;;;28.19;48.82;100259.64;1797494;79;21897;-79
2023/09/02 03:45:03;;;;;;;36.15;24.87;;;;;;;28.04;49.18;100256.36;1780642;79;21907;-79
2023/09/02 03:48:10;;;;;;;28.50;22.82;;;;;;;28.58;48.10;100256.75;1780347;79;21892;-80
2023/09/02 03:51:19;;;;;;;32.85;21.02;;;;;;;28.40;48.52;100263.12;1786370;79;21325;-78
2023/09/02 03:54:25;;;;;;;;;;;;;;;28.36;48.65;100262.86;1801380;79;21350;-78
2023/09/02 03:57:32;;;;;;;39.10;23.22;;;;;;;28.77;47.87;100264.70;1794239;79;20268;-78
2023/09/02 04:00:37;;;;;;;32.08;21.15;;;;;;;29.34;46.76;100266.86;1793429;79;21345;-78
2023/09/02 04:03:43;;;;;;;26.12;19.70;;;;;;;29.62;46.21;100271.55;1793110;79;21365;-80
2023/09/02 04:06:50;;;;;;;32.67;19.70;;;;;;;29.39;46.65;100271.84;1794622;79;21646;-81
2023/09/02 04:09:57;;;;;;;26.45;18.42;;;;;;;29.81;45.84;100272.13;1796218;79;21324;-81
2023/09/02 04:13:02;;;;;;;30.48;21.15;;;;;;;29.96;45.32;100274.13;1786562;79;21322;-78
2023/09/02 04:16:10;;;;;;;32.35;22.10;;;;;;;29.93;45.43;100273.35;1799547;79;21336;-79
2023/09/02 04:19:17;;;;;;;27.02;18.80;;;;;;;29.78;45.93;100277.25;1776839;79;21680;-80
2023/09/02 04:22:23;;;;;;;31.80;20.65;;;;;;;29.70;45.97;100280.74;1791646;79;21370;-80
2023/09/02 04:25:30;;;;;;;26.90;18.48;;;;;;;29.63;46.24;100287.31;1787072;79;21334;-80
2023/09/02 04:28:35;;;;;;;31.90;20.70;;;;;;;29.67;46.06;100290.38;1781415;79;21345;-80
2023/09/02 04:31:43;;;;;;;32.60;20.77;;;;;;;29.82;45.85;100294.37;1777780;79;21345;-79
2023/09/02 04:34:49;;;;;;;33.63;20.08;;;;;;;29.75;45.92;100291.11;1784713;79;21317;-79
2023/09/02 04:37:55;;;;;;;32.75;20.25;;;;;;;29.78;45.84;100289.94;1786800;79;21329;-79
2023/09/02 04:41:06;;;;;;;28.62;19.70;;;;;;;30.08;45.29;100293.41;1783796;79;21329;-79
2023/09/02 04:44:14;;;;;;;29.87;18.92;;;;;;;30.07;45.27;100295.97;1786538;79;21318;-79
2023/09/02 04:47:20;;;;;;;28.07;19.32;;;;;;;30.15;45.31;100293.04;1786229;80;21654;-79
2023/09/02 04:50:26;;;;;;;28.55;16.93;;;;;;;30.62;44.49;100288.27;1780909;79;21332;-79
2023/09/02 04:53:33;;;;;;;26.97;16.45;;;;;;;30.77;44.26;100293.11;1791419;79;21907;-79
2023/09/02 04:56:40;;;;;;;22.75;14.70;;;;;;;30.96;43.63;100290.73;1791484;80;21325;-79
2023/09/02 04:59:45;;;;;;;22.73;14.75;;;;;;;30.95;43.47;100294.72;1786402;79;21359;-79
2023/09/02 05:02:51;;;;;;;22.45;14.40;;;;;;;31.55;42.38;100296.03;1776588;79;21361;-78
2023/09/02 05:06:00;;;;;;;21.25;13.83;;;;;;;31.47;42.10;100299.59;1788922;79;21348;-79
2023/09/02 05:09:09;;;;;;;18.55;13.70;;;;;;;31.53;42.19;100306.83;1779654;80;21894;-79
2023/09/02 05:12:15;;;;;;;21.93;14.00;;;;;;;31.76;41.73;100306.29;1788776;80;21365;-79
2023/09/02 05:15:21;;;;;;;18.90;13.15;;;;;;;32.09;41.23;100304.15;1778128;79;21341;-79
2023/09/02 05:18:26;;;;;;;16.97;13.40;;;;;;;31.90;41.51;100296.39;1790182;79;21317;-79
2023/09/02 05:21:31;;;;;;;15.35;11.48;;;;;;;31.47;41.90;100303.84;1786246;79;21360;-79
2023/09/02 05:24:38;;;;;;;19.23;11.55;;;;;;;31.89;41.35;100299.80;1775590;79;21428;-79
2023/09/02 05:27:44;;;;;;;19.05;10.82;;;;;;;31.90;41.27;100296.39;1778219;79;21321;-79
2023/09/02 05:30:50;;;;;;;15.93;11.78;;;;;;;31.94;41.03;100295.42;1799854;79;21356;-79
2023/09/02 05:33:56;;;;;;;15.35;11.00;;;;;;;31.98;40.93;100298.46;1799360;79;21324;-79
2023/09/02 05:37:02;;;;;;;13.95;10.38;;;;;;;32.54;40.01;100299.91;1798885;79;21361;-78
2023/09/02 05:40:07;;;;;;;16.52;10.38;;;;;;;32.71;39.56;100299.19;1776337;79;21309;-79
2023/09/02 05:43:14;;;;;;;16.40;11.05;;;;;;;32.41;40.22;100295.16;1788968;79;21377;-79
2023/09/02 05:46:19;;;;;;;14.10;11.38;;;;;;;32.71;39.92;100304.84;1796829;79;21349;-79
2023/09/02 05:49:24;;;;;;;19.17;10.80;;;;;;;32.59;40.10;100304.02;1781311;79;21335;-79
2023/09/02 05:52:30;;;;;;;13.28;9.83;;;;;;;32.93;39.31;100301.14;1782143;79;21930;-78
2023/09/02 05:55:35;;;;;;;13.38;9.90;;;;;;;32.92;38.89;100312.22;1782518;79;21344;-79
2023/09/02 05:58:41;;;;;;;18.35;10.72;;;;;;;33.02;38.90;100306.27;1784299;79;21381;-79
2023/09/02 06:01:46;;;;;;;16.30;10.60;;;;;;;33.38;38.70;100308.91;1765333;79;21347;-79
2023/09/02 06:04:51;;;;;;;13.53;10.58;;;;;;;33.56;38.51;100316.91;1786077;79;21885;-79
2023/09/02 06:07:56;;;;;;;14.05;9.80;;;;;;;33.26;38.78;100321.44;1789580;79;21319;-79
2023/09/02 06:11:07;;;;;;;10.68;8.75;;;;;;;33.30;38.65;100327.54;1779239;79;21355;-79
2023/09/02 06:14:11;;;;;;;11.43;8.97;;;;;;;33.19;38.51;100325.34;1779157;80;21325;-79
2023/09/02 06:17:17;;;;;;;11.30;9.25;;;;;;;33.52;37.75;100339.99;1790360;80;21379;-79
2023/09/02 06:20:24;;;;;;;11.53;8.85;;;;;;;33.73;37.80;100335.35;1792262;79;21333;-79
2023/09/02 06:23:31;;;;;;;9.55;8.38;;;;;;;34.09;37.29;100334.27;1782870;79;21923;-79
2023/09/02 06:26:39;;;;;;;11.05;7.95;;;;;;;34.16;36.88;100338.01;1791800;79;21337;-79
2023/09/02 06:29:44;;;;;;;10.30;8.23;;;;;;;34.13;36.84;100348.63;1763723;80;21341;-79
2023/09/02 06:32:51;;;;;;;12.50;7.95;;;;;;;34.27;36.71;100343.03;1773251;79;21876;-79
2023/09/02 06:35:58;;;;;;;11.75;7.67;;;;;;;34.18;36.92;100339.94;1788109;79;21329;-79
2023/09/02 06:39:04;;;;;;;15.95;8.03;;;;;;;34.51;35.98;100345.96;1783005;79;21356;-79
2023/09/02 06:42:10;;;;;;;11.88;7.20;;;;;;;34.15;36.85;100348.53;1778395;79;21349;-78
2023/09/02 06:45:16;;;;;;;9.25;7.25;;;;;;;34.00;36.36;100346.19;1789896;79;21337;-79
2023/09/02 06:48:22;;;;;;;7.55;6.67;;;;;;;34.10;36.31;100352.95;1801053;79;21340;-79
2023/09/02 06:51:28;;;;;;;8.35;7.05;;;;;;;34.20;36.10;100363.14;1782830;79;21333;-79
2023/09/02 06:54:34;;;;;;;8.73;6.72;;;;;;;34.07;36.37;100356.48;1782155;79;21333;-79
2023/09/02 06:57:40;;;;;;;10.55;6.78;;;;;;;34.06;35.47;100362.70;1782576;79;21286;-79
2023/09/02 07:00:48;;;;;;;8.63;6.65;;;;;;;33.71;36.17;100353.30;1785477;79;21353;-79
2023/09/02 07:03:55;;;;;;;7.50;6.25;;;;;;;34.54;35.38;100352.41;1795202;79;21329;-79
2023/09/02 07:07:02;;;;;;;7.45;6.37;;;;;;;34.84;34.18;100352.73;1793786;79;21317;-79
2023/09/02 07:10:08;;;;;;;9.95;6.65;;;;;;;34.66;34.49;100353.95;1791551;79;21345;-79
2023/09/02 07:13:14;;;;;;;11.90;6.55;;;;;;;34.69;34.25;100358.97;1792540;79;21325;-79
2023/09/02 07:16:19;;;;;;;7.95;6.08;;;;;;;34.55;34.45;100361.99;1785985;79;21341;-79
2023/09/02 07:19:26;;;;;;;10.32;6.58;;;;;;;34.44;34.35;100356.95;1776269;79;21350;-79
2023/09/02 07:22:32;;;;;;;9.45;6.85;;;;;;;34.48;34.26;100350.30;1788123;79;21329;-79
2023/09/02 07:25:38;;;;;;;9.23;6.65;;;;;;;34.47;34.51;100359.16;1795868;79;21338;-79
2023/09/02 07:28:44;;;;;;;10.25;5.80;;;;;;;34.82;33.96;100362.79;1787034;79;21272;-78
2023/09/02 07:31:49;;;;;;;9.93;6.20;;;;;;;34.86;33.50;100360.09;1782662;79;21310;-79
2023/09/02 07:34:55;;;;;;;8.65;5.97;;;;;;;34.79;33.28;100363.45;1784870;79;21339;-79
2023/09/02 07:38:01;;;;;;;12.50;5.80;;;;;;;35.06;33.19;100369.35;1792803;79;21336;-79
2023/09/02 07:41:07;;;;;;;7.37;5.30;;;;;;;35.02;32.53;100358.41;1786712;79;21322;-79
2023/09/02 07:44:13;;;;;;;5.78;4.67;;;;;;;34.79;32.52;100362.87;1777727;79;21380;-79
2023/09/02 07:47:19;;;;;;;9.78;5.05;;;;;;;34.88;32.69;100357.17;1790826;79;21313;-78
2023/09/02 07:50:26;;;;;;;6.17;5.20;;;;;;;34.74;32.03;100357.95;1782062;79;21880;-79
2023/09/02 07:53:31;;;;;;;4.92;4.37;;;;;;;35.06;32.06;100363.08;1787686;79;21660;-78
2023/09/02 07:56:36;;;;;;;6.20;4.50;;;;;;;35.18;31.46;100378.58;1788277;79;21332;-79
2023/09/02 07:59:41;;;;;;;7.90;5.60;;;;;;;35.28;31.80;100367.66;1787832;80;21325;-79
2023/09/02 08:02:47;;;;;;;5.67;4.55;;;;;;;35.39;31.65;100365.29;1790354;79;21348;-79
2023/09/02 08:05:53;;;;;;;7.10;5.20;;;;;;;35.47;31.13;100374.38;1777405;79;21353;-79
2023/09/02 08:09:00;;;;;;;8.10;5.28;;;;;;;35.42;31.67;100370.86;1784065;79;21344;-78
2023/09/02 08:12:06;;;;;;;7.20;5.25;;;;;;;35.46;31.91;100380.41;1801894;79;21324;-78
2023/09/02 08:15:12;;;;;;;6.45;4.83;;;;;;;35.21;31.32;100370.80;1787328;80;21328;-79
2023/09/02 08:18:18;;;;;;;7.15;4.53;;;;;;;35.29;31.09;100380.72;1793051;79;21360;-79
2023/09/02 08:21:23;;;;;;;8.45;4.42;;;;;;;35.17;31.30;100382.01;1786974;79;22631;-79
2023/09/02 08:24:28;;;;;;;6.58;5.25;;;;;;;35.34;31.52;100374.84;1796114;79;21340;-79
2023/09/02 08:27:34;;;;;;;10.58;6.08;;;;;;;35.14;30.91;100391.20;1783102;79;21336;-79
2023/09/02 08:30:39;;;;;;;7.35;5.22;;;;;;;34.94;31.12;100382.80;1784639;79;21903;-79
2023/09/02 08:33:45;;;;;;;7.37;5.50;;;;;;;34.63;31.77;100380.77;1778010;79;21349;-79
2023/09/02 08:36:51;;;;;;;8.35;4.95;;;;;;;34.72;31.91;100388.09;1785363;80;21325;-79
2023/09/02 08:39:56;;;;;;;8.15;5.80;;;;;;;34.82;31.63;100380.67;1793200;79;21360;-79
2023/09/02 08:43:02;;;;;;;8.33;4.62;;;;;;;34.86;31.64;100389.91;1782352;79;21357;-79
2023/09/02 08:46:08;;;;;;;10.13;5.35;;;;;;;34.86;31.94;100387.91;1795091;79;21313;-78
2023/09/02 08:49:13;;;;;;;10.45;6.28;;;;;;;35.07;31.72;100388.06;1801965;79;21369;-79
2023/09/02 08:52:22;;;;;;;6.95;5.58;;;;;;;35.00;31.88;100382.06;1792678;79;21903;-79
2023/09/02 08:55:27;;;;;;;10.32;6.08;;;;;;;35.00;31.43;100385.73;1781883;79;21903;-79
2023/09/02 08:58:33;;;;;;;6.05;5.30;;;;;;;34.72;31.03;100378.16;1783310;79;21901;-79
2023/09/02 09:01:40;;;;;;;11.03;4.95;;;;;;;34.68;31.37;100385.71;1788743;79;21345;-78
2023/09/02 09:04:48;;;;;;;12.70;4.80;;;;;;;34.87;30.80;100386.76;1788814;79;22581;-79
2023/09/02 09:07:53;;;;;;;10.03;5.58;;;;;;;34.41;31.97;100389.70;1778359;79;21907;-79
2023/09/02 09:11:00;;;;;;;5.78;4.22;;;;;;;34.81;30.82;100396.61;1785259;79;21318;-79
2023/09/02 09:14:07;;;;;;;10.60;5.10;;;;;;;35.23;29.08;100394.85;1791375;79;21328;-78
2023/09/02 09:17:13;;;;;;;8.45;4.80;;;;;;;35.26;29.68;100394.19;1787169;78;21879;-78
2023/09/02 09:20:19;;;;;;;5.25;4.70;;;;;;;35.32;29.91;100377.77;1780871;78;21320;-79
2023/09/02 09:23:25;;;;;;;8.80;4.28;;;;;;;35.20;30.59;100394.72;1803277;78;21866;-79
2023/09/02 09:26:32;;;;;;;5.53;4.30;;;;;;;35.22;29.48;100396.03;1818037;77;21342;-79
2023/09/02 09:29:46;;;;;;;5.75;4.20;;;;;;;35.27;29.24;100395.02;1826989;77;21417;-79
2023/09/02 09:32:57;;;;;;;6.37;4.20;;;;;;;34.56;30.12;100391.22;1804606;78;21319;-78
2023/09/02 09:36:07;;;;;;;11.75;4.12;;;;;;;35.18;29.14;100404.16;1752660;80;21890;-78
2023/09/02 09:39:14;;;;;;;;;;;;;;;35.19;29.45;100408.08;1749260;80;21315;-79
2023/09/02 09:42:21;;;;;;;6.30;4.45;;;;;;;35.14;29.15;100394.64;1810455;77;20285;-79
2023/09/02 09:45:27;;;;;;;6.95;4.40;;;;;;;35.27;29.19;100394.42;1831131;78;21316;-78
2023/09/02 09:48:32;;;;;;;8.23;4.20;;;;;;;35.49;29.01;100408.18;1825312;77;21331;-79
2023/09/02 09:51:37;;;;;;;4.40;3.80;;;;;;;35.05;29.33;100401.77;1809311;78;21317;-79
2023/09/02 09:54:53;;;;;;;6.58;3.40;;;;;;;35.07;29.51;100405.95;1824132;78;21339;-79
2023/09/02 09:58:05;;;;;;;4.95;3.87;;;;;;;35.15;28.23;100407.11;1823324;77;21910;-78
2023/09/02 10:01:09;;;;;;;8.88;3.80;;;;;;;35.10;28.49;100408.69;1807653;78;21288;-78
2023/09/02 10:04:16;;;;;;;5.00;4.03;;;;;;;35.20;28.81;100394.13;1800305;78;21307;-78
2023/09/02 10:07:22;;;;;;;8.03;3.95;;;;;;;35.34;28.76;100397.59;1823041;78;21352;-79
2023/09/02 10:10:28;;;;;;;10.75;3.52;;;;;;;35.42;29.07;100397.88;1785547;78;21316;-79
2023/09/02 10:13:33;;;;;;;14.95;4.08;;;;;;;35.47;28.36;100401.98;1782257;78;21315;-79
2023/09/02 10:16:43;;;;;;;10.28;3.90;;;;;;;35.36;27.78;100410.63;1790584;78;21362;-79
2023/09/02 10:19:49;;;;;;;4.28;3.62;;;;;;;35.22;28.28;100396.03;1793732;78;21364;-79
2023/09/02 10:22:54;;;;;;;5.28;3.72;;;;;;;35.60;28.02;100402.34;1755481;81;21329;-79
2023/09/02 10:26:06;;;;;;;6.70;3.77;;;;;;;35.61;27.49;100399.73;1754935;80;21328;-78
2023/09/02 10:29:14;;;;;;;8.70;3.55;;;;;;;35.56;27.76;100399.94;1733785;79;21367;-79
2023/09/02 10:32:19;;;;;;;8.50;4.12;;;;;;;35.84;28.10;100401.11;1819819;78;21308;-78
2023/09/02 10:35:31;;;;;;;7.40;3.77;;;;;;;35.80;27.61;100404.39;1820298;78;21319;-78
2023/09/02 10:38:40;;;;;;;4.97;3.75;;;;;;;35.83;27.77;100411.42;1813843;78;21320;-79
2023/09/02 10:41:45;;;;;;;7.22;4.12;;;;;;;35.86;27.43;100403.63;1825329;78;21347;-78
2023/09/02 10:44:51;;;;;;;9.78;3.70;;;;;;;35.89;26.98;100402.92;1789571;78;21334;-78
2023/09/02 10:47:57;;;;;;;5.97;3.80;;;;;;;35.91;27.18;100401.18;1823888;78;21890;-78
2023/09/02 10:51:04;;;;;;;4.53;3.37;;;;;;;35.87;27.20;100406.72;1826071;78;21370;-78
2023/09/02 10:54:10;;;;;;;4.55;3.62;;;;;;;35.95;27.36;100394.48;1813999;78;21331;-78
2023/09/02 10:57:22;;;;;;;11.10;3.60;;;;;;;35.55;26.04;100395.42;1819776;78;21319;-78
2023/09/02 11:00:29;;;;;;;6.67;3.50;;;;;;;35.55;26.52;100393.41;1815900;78;21303;-78
2023/09/02 11:03:54;;;;;;;5.33;3.30;;;;;;;35.55;25.97;100391.99;1740533;80;21884;-78
2023/09/02 11:07:33;;;;;;;5.87;3.75;;;;;;;35.55;26.58;100391.99;1818513;78;21403;-78
2023/09/02 11:11:00;;;;;;;7.62;3.75;;;;;;;35.65;26.78;100388.52;1694214;83;21359;-78
2023/09/02 11:14:20;;;;;;;8.55;3.77;;;;;;;35.66;26.99;100384.48;1692969;81;21465;-78
2023/09/02 11:17:37;;;;;;;6.37;3.35;;;;;;;35.70;26.68;100391.16;1753197;81;21328;-78
2023/09/02 11:20:57;;;;;;;5.47;2.92;;;;;;;35.90;26.38;100379.56;1746054;81;21348;-78
2023/09/02 11:24:24;;;;;;;4.40;3.30;;;;;;;35.53;26.04;100393.53;1734004;81;21886;-78
2023/09/02 11:27:29;;;;;;;7.20;3.55;;;;;;;35.57;26.14;100389.66;1753435;80;21346;-78
2023/09/02 11:30:35;;;;;;;8.55;3.52;;;;;;;35.63;26.38;100386.02;1788085;79;21327;-78
2023/09/02 11:33:41;;;;;;;6.03;3.50;;;;;;;35.85;26.37;100382.02;1820502;77;21913;-78
2023/09/02 11:36:51;;;;;;;4.20;3.45;;;;;;;36.12;26.16;100385.56;1831639;78;21390;-79
2023/09/02 11:39:57;;;;;;;8.78;3.35;;;;;;;36.21;26.22;100387.75;1822939;78;21319;-78
2023/09/02 11:43:07;;;;;;;9.83;3.55;;;;;;;35.92;25.73;100397.15;1809755;78;22523;-78
2023/09/02 11:46:14;;;;;;;;;;;;;;;35.86;25.76;100394.27;1834233;77;21319;-79
2023/09/02 11:49:26;;;;;;;3.87;2.98;;;;;;;35.88;25.63;100390.47;1815759;77;20270;-78
2023/09/02 11:52:33;;;;;;;7.80;3.10;;;;;;;35.81;25.14;100389.61;1756986;79;21870;-78
2023/09/02 11:55:39;;;;;;;4.03;2.85;;;;;;;36.04;24.54;100397.24;1729769;81;21938;-79
2023/09/02 11:58:46;;;;;;;5.17;3.08;;;;;;;36.37;24.42;100405.03;1758497;81;21345;-79
2023/09/02 12:01:51;;;;;;;6.90;3.33;;;;;;;36.43;24.43;100405.12;1745159;81;21336;-79
2023/09/02 12:04:57;;;;;;;4.65;2.90;;;;;;;36.35;24.71;100400.52;1751218;79;21330;-79
2023/09/02 12:08:04;;;;;;;3.55;2.92;;;;;;;36.59;23.64;100401.86;1748227;81;21328;-79
2023/09/02 12:11:10;;;;;;;4.37;3.30;;;;;;;36.24;24.25;100404.98;1780546;80;21281;-79
2023/09/02 12:14:17;;;;;;;4.85;3.42;;;;;;;36.48;24.25;100403.48;1754585;81;21391;-79
2023/09/02 12:17:23;;;;;;;3.98;2.95;;;;;;;36.54;23.64;100400.66;1750878;80;21404;-78
2023/09/02 12:20:29;;;;;;;4.62;3.37;;;;;;;36.52;23.66;100401.02;1742670;80;21335;-79
2023/09/02 12:23:34;;;;;;;9.63;3.05;;;;;;;36.53;23.68;100398.99;1731459;82;21995;-78
2023/09/02 12:26:40;;;;;;;5.62;2.80;;;;;;;36.71;23.89;100392.55;1745691;80;21346;-79
2023/09/02 12:29:46;;;;;;;8.55;3.22;;;;;;;36.83;23.77;100392.57;1782319;80;21355;-79
2023/09/02 12:32:52;;;;;;;6.08;3.33;;;;;;;36.56;23.96;100405.42;1748948;80;21321;-79
2023/09/02 12:35:59;;;;;;;5.58;3.10;;;;;;;36.62;24.04;100392.63;1788689;79;21319;-78
2023/09/02 12:39:05;;;;;;;5.80;3.08;;;;;;;36.54;23.92;100396.37;1808339;78;21288;-79
2023/09/02 12:42:27;;;;;;;8.93;2.90;;;;;;;36.43;23.97;100398.00;1797721;78;21378;-78
2023/09/02 12:45:42;;;;;;;5.70;3.40;;;;;;;36.37;24.27;100400.17;1810492;77;21311;-78
2023/09/02 12:48:49;;;;;;;10.00;3.42;;;;;;;36.39;24.46;100395.57;1808132;77;21902;-79
2023/09/02 12:51:54;;;;;;;4.45;3.37;;;;;;;36.50;24.76;100396.83;1813404;78;21330;-79
2023/09/02 12:55:06;;;;;;;4.92;3.70;;;;;;;36.06;24.67;100406.29;1808906;78;21328;-78
2023/09/02 12:58:13;;;;;;;5.10;3.30;;;;;;;35.89;24.67;100412.05;1816793;77;21924;-79
2023/09/02 13:01:20;;;;;;;13.65;3.30;;;;;;;35.75;24.93;100413.13;1757429;80;21353;-79
2023/09/02 13:04:25;;;;;;;4.58;3.30;;;;;;;35.79;24.63;100418.38;1759261;81;21319;-79
2023/09/02 13:07:31;;;;;;;5.58;4.20;;;;;;;35.94;24.49;100404.73;1789213;79;21300;-78
2023/09/02 13:10:38;;;;;;;10.03;4.72;;;;;;;35.94;24.44;100407.58;1824237;78;21219;-79
2023/09/02 13:13:44;;;;;;;6.85;3.87;;;;;;;35.76;24.48;100416.25;1829173;77;21330;-79
2023/09/02 13:16:51;;;;;;;10.18;3.55;;;;;;;35.78;24.33;100409.61;1826899;77;21312;-79
2023/09/02 13:19:58;;;;;;;3.52;2.95;;;;;;;35.95;24.48;100400.73;1834906;77;21874;-79
2023/09/02 13:23:05;;;;;;;6.85;3.37;;;;;;;36.08;24.15;100413.87;1829664;77;21323;-79
2023/09/02 13:26:21;;;;;;;4.90;3.50;;;;;;;36.06;23.86;100404.87;1824818;77;21308;-79
2023/09/02 13:29:29;;;;;;;4.85;3.62;;;;;;;36.11;23.77;100416.64;1826114;78;21737;-79
2023/09/02 13:32:36;;;;;;;4.78;3.47;;;;;;;36.09;23.69;100409.87;1829444;77;21311;-78
2023/09/02 13:35:41;;;;;;;4.90;3.52;;;;;;;35.93;24.20;100405.33;1805818;77;21312;-78
2023/09/02 13:38:46;;;;;;;4.67;3.12;;;;;;;35.88;24.19;100401.86;1820377;77;21299;-78
2023/09/02 13:41:53;;;;;;;7.65;3.70;;;;;;;36.12;24.21;100396.36;1804252;78;21919;-78
2023/09/02 13:45:06;;;;;;;6.37;3.90;;;;;;;36.04;23.92;100404.36;1822858;78;21316;-79
2023/09/02 13:48:13;;;;;;;6.83;4.67;;;;;;;36.12;23.41;100397.78;1806900;78;21323;-79
2023/09/02 13:51:22;;;;;;;5.05;3.72;;;;;;;35.99;23.15;100394.60;1737422;81;21341;-78
2023/09/02 13:54:27;;;;;;;5.08;3.20;;;;;;;35.91;23.31;100392.05;1767257;79;21319;-78
2023/09/02 13:57:33;;;;;;;16.02;4.40;;;;;;;35.91;23.27;100402.60;1787131;80;21873;-79
2023/09/02 14:00:44;;;;;;;8.58;4.60;;;;;;;35.97;23.14;100398.40;1758449;81;21349;-79
2023/09/02 14:03:51;;;;;;;9.50;4.83;;;;;;;35.72;23.32;100399.61;1827731;78;21311;-79
2023/09/02 14:06:56;;;;;;;9.23;4.40;;;;;;;35.78;23.14;100396.80;1803445;78;21391;-80
2023/09/02 14:10:04;;;;;;;10.70;3.98;;;;;;;35.68;23.24;100389.27;1814274;78;21358;-80
2023/09/02 14:13:10;;;;;;;7.03;3.83;;;;;;;35.16;24.41;100388.88;1817093;78;21320;-80
2023/09/02 14:16:17;;;;;;;6.33;3.50;;;;;;;35.78;23.82;100392.53;1819009;77;21299;-80
2023/09/02 14:19:26;;;;;;;6.80;3.65;;;;;;;35.70;23.88;100389.14;1812149;78;21311;-80
2023/09/02 14:22:32;;;;;;;6.33;3.85;;;;;;;35.56;23.42;100386.54;1820229;78;21308;-80